This is the latest recevied weather packets stored in our database for station/object GCEMA. If no packets are shown the sender has not sent any weather packets the latest 1 day(s).
| Time | Temp. | Humidity | Pressure | Rain* | Wind** | Luminosity | Snow |
|---|---|---|---|---|---|---|---|
| 1778067832 | 11.67° C | - | 1010.3 hPa | 0 mm | 0 m/s | - | - |
| 1778067652 | 11.67° C | - | 1010.1 hPa | 0 mm | 0 m/s | - | - |
| 1778067295 | 11.11° C | - | 1010.1 hPa | 0 mm | 0 m/s | - | - |
| 1778065492 | 11.67° C | - | 1009.4 hPa | 0 mm | 0 m/s | - | - |
| 1778065129 | 12.22° C | - | 1009.2 hPa | 0 mm | 0 m/s | - | - |
| 1778064950 | 12.22° C | - | 1009.2 hPa | 0 mm | 0 m/s | - | - |
| 1778064592 | 11.67° C | - | 1009.2 hPa | 0 mm | 0 m/s | - | - |
| 1778064230 | 12.22° C | - | 1009 hPa | 0 mm | 0 m/s | - | - |
| 1778063870 | 12.22° C | - | 1009 hPa | 0 mm | 0 m/s | - | - |
| 1778063509 | 12.22° C | - | 1008.9 hPa | 0 mm | 0 m/s | - | - |
| 1778062428 | 12.78° C | - | 1008.2 hPa | 0 mm | 0 m/s | - | - |
| 1778062069 | 12.22° C | - | 1008.3 hPa | 0 mm | 0 m/s | - | - |
| 1778061890 | 12.22° C | - | 1008.2 hPa | 0 mm | 0 m/s | - | - |
| 1778061347 | 12.22° C | - | 1008 hPa | 0 mm | 0 m/s | - | - |
| 1778060988 | 12.22° C | - | 1008.2 hPa | 0 mm | 0 m/s | - | - |
| 1778060807 | 12.78° C | - | 1008.2 hPa | 0 mm | 0 m/s | - | - |
| 1778060448 | 12.22° C | - | 1008.4 hPa | 0 mm | 0 m/s | - | - |
| 1778060267 | 12.22° C | - | 1008.5 hPa | 0 mm | 0 m/s | - | - |
| 1778060088 | 12.22° C | - | 1008.4 hPa | 0 mm | 0 m/s | - | - |
| 1778059906 | 12.22° C | - | 1008.4 hPa | 0 mm | 0 m/s | - | - |
| 1778059726 | 12.22° C | - | 1008.4 hPa | 0 mm | 0 m/s | - | - |
| 1778059367 | 12.22° C | - | 1008.4 hPa | 0 mm | 0 m/s | - | - |
| 1778058826 | 12.22° C | - | 1008.3 hPa | 0 mm | 0 m/s | - | - |
| 1778058467 | 12.22° C | - | 1008.4 hPa | 0 mm | 0 m/s | - | - |
| 1778058105 | 11.11° C | - | 1008.3 hPa | 0 mm | 0 m/s | - | - |
* Rain latest hour (hover to see other rain measurements)
** Current wind speed in m/s (hover to see current wind gust speed)